sensor_id;sensor_type;location;lat;lon;timestamp;P1;durP1;ratioP1;P2;durP2;ratioP2
74495;SDS011;62979;55.720;37.606;2022-08-19T00:00:26;7.10;;;5.82;;
74495;SDS011;62979;55.720;37.606;2022-08-19T00:02:53;5.63;;;3.65;;
74495;SDS011;62979;55.720;37.606;2022-08-19T00:05:20;7.65;;;5.43;;
74495;SDS011;62979;55.720;37.606;2022-08-19T00:07:47;4.75;;;4.35;;
74495;SDS011;62979;55.720;37.606;2022-08-19T00:10:15;6.63;;;4.50;;
74495;SDS011;62979;55.720;37.606;2022-08-19T00:12:42;7.35;;;4.55;;
74495;SDS011;62979;55.720;37.606;2022-08-19T00:15:09;9.18;;;4.68;;
74495;SDS011;62979;55.720;37.606;2022-08-19T00:17:43;7.22;;;4.85;;
74495;SDS011;62979;55.720;37.606;2022-08-19T00:20:12;5.97;;;4.45;;
74495;SDS011;62979;55.720;37.606;2022-08-19T00:22:40;8.80;;;4.05;;
74495;SDS011;62979;55.720;37.606;2022-08-19T00:25:07;4.55;;;4.15;;
74495;SDS011;62979;55.720;37.606;2022-08-19T00:27:33;6.68;;;4.30;;
74495;SDS011;62979;55.720;37.606;2022-08-19T00:29:59;8.77;;;4.32;;
74495;SDS011;62979;55.720;37.606;2022-08-19T00:32:26;6.80;;;4.97;;
74495;SDS011;62979;55.720;37.606;2022-08-19T00:34:52;10.90;;;4.35;;
74495;SDS011;62979;55.720;37.606;2022-08-19T00:37:19;9.40;;;4.82;;
74495;SDS011;62979;55.720;37.606;2022-08-19T00:39:45;7.00;;;5.18;;
74495;SDS011;62979;55.720;37.606;2022-08-19T00:42:11;7.45;;;4.50;;
74495;SDS011;62979;55.720;37.606;2022-08-19T00:44:37;9.93;;;5.05;;
74495;SDS011;62979;55.720;37.606;2022-08-19T00:47:03;9.30;;;4.93;;
74495;SDS011;62979;55.720;37.606;2022-08-19T00:49:31;9.18;;;5.20;;
74495;SDS011;62979;55.720;37.606;2022-08-19T00:52:06;8.55;;;3.88;;
74495;SDS011;62979;55.720;37.606;2022-08-19T00:54:37;8.30;;;5.15;;
74495;SDS011;62979;55.720;37.606;2022-08-19T00:57:06;10.52;;;4.85;;
74495;SDS011;62979;55.720;37.606;2022-08-19T00:59:36;8.65;;;5.43;;
74495;SDS011;62979;55.720;37.606;2022-08-19T01:02:04;6.82;;;5.25;;
74495;SDS011;62979;55.720;37.606;2022-08-19T01:04:31;8.52;;;4.97;;
74495;SDS011;62979;55.720;37.606;2022-08-19T01:06:57;7.10;;;5.50;;
74495;SDS011;62979;55.720;37.606;2022-08-19T01:09:24;7.80;;;5.65;;
74495;SDS011;62979;55.720;37.606;2022-08-19T01:11:51;6.70;;;5.68;;
74495;SDS011;62979;55.720;37.606;2022-08-19T01:14:17;7.95;;;5.07;;
74495;SDS011;62979;55.720;37.606;2022-08-19T01:16:44;6.35;;;5.22;;
74495;SDS011;62979;55.720;37.606;2022-08-19T01:19:12;8.18;;;4.97;;
74495;SDS011;62979;55.720;37.606;2022-08-19T01:21:50;7.85;;;5.20;;
74495;SDS011;62979;55.720;37.606;2022-08-19T01:24:21;7.65;;;3.88;;
74495;SDS011;62979;55.720;37.606;2022-08-19T01:26:47;9.13;;;4.80;;
74495;SDS011;62979;55.720;37.606;2022-08-19T01:29:14;6.13;;;5.13;;
74495;SDS011;62979;55.720;37.606;2022-08-19T01:31:40;6.78;;;4.55;;
74495;SDS011;62979;55.720;37.606;2022-08-19T01:34:06;5.85;;;5.25;;
74495;SDS011;62979;55.720;37.606;2022-08-19T01:36:34;9.23;;;5.15;;
74495;SDS011;62979;55.720;37.606;2022-08-19T01:39:05;8.55;;;4.90;;
74495;SDS011;62979;55.720;37.606;2022-08-19T01:41:35;8.80;;;4.75;;
74495;SDS011;62979;55.720;37.606;2022-08-19T01:44:02;6.47;;;4.50;;
74495;SDS011;62979;55.720;37.606;2022-08-19T01:46:31;7.05;;;4.78;;
74495;SDS011;62979;55.720;37.606;2022-08-19T01:48:57;6.82;;;4.35;;
74495;SDS011;62979;55.720;37.606;2022-08-19T01:51:24;10.25;;;5.70;;
74495;SDS011;62979;55.720;37.606;2022-08-19T01:53:50;9.18;;;5.85;;
74495;SDS011;62979;55.720;37.606;2022-08-19T01:56:17;9.02;;;5.68;;
74495;SDS011;62979;55.720;37.606;2022-08-19T01:58:47;9.23;;;5.95;;
74495;SDS011;62979;55.720;37.606;2022-08-19T02:01:18;7.72;;;4.50;;
74495;SDS011;62979;55.720;37.606;2022-08-19T02:03:44;14.43;;;6.03;;
74495;SDS011;62979;55.720;37.606;2022-08-19T02:06:10;10.95;;;6.32;;
74495;SDS011;62979;55.720;37.606;2022-08-19T02:08:37;7.18;;;6.47;;
74495;SDS011;62979;55.720;37.606;2022-08-19T02:11:05;10.05;;;5.63;;
74495;SDS011;62979;55.720;37.606;2022-08-19T02:15:59;10.68;;;5.38;;
74495;SDS011;62979;55.720;37.606;2022-08-19T02:18:25;7.68;;;5.45;;
74495;SDS011;62979;55.720;37.606;2022-08-19T02:20:52;9.55;;;5.90;;
74495;SDS011;62979;55.720;37.606;2022-08-19T02:23:18;9.95;;;4.38;;
74495;SDS011;62979;55.720;37.606;2022-08-19T02:25:44;7.45;;;5.78;;
74495;SDS011;62979;55.720;37.606;2022-08-19T02:28:12;7.97;;;6.00;;
74495;SDS011;62979;55.720;37.606;2022-08-19T02:30:40;10.73;;;6.35;;
74495;SDS011;62979;55.720;37.606;2022-08-19T02:35:33;7.68;;;5.60;;
74495;SDS011;62979;55.720;37.606;2022-08-19T02:37:59;7.75;;;6.05;;
74495;SDS011;62979;55.720;37.606;2022-08-19T02:40:25;7.15;;;6.10;;
74495;SDS011;62979;55.720;37.606;2022-08-19T02:42:51;9.02;;;7.18;;
74495;SDS011;62979;55.720;37.606;2022-08-19T02:45:17;9.25;;;4.78;;
74495;SDS011;62979;55.720;37.606;2022-08-19T02:47:43;7.88;;;5.63;;
74495;SDS011;62979;55.720;37.606;2022-08-19T02:50:11;12.68;;;5.18;;
74495;SDS011;62979;55.720;37.606;2022-08-19T02:55:02;8.02;;;5.72;;
74495;SDS011;62979;55.720;37.606;2022-08-19T02:57:29;7.07;;;5.90;;
74495;SDS011;62979;55.720;37.606;2022-08-19T02:59:56;8.18;;;5.75;;
74495;SDS011;62979;55.720;37.606;2022-08-19T03:02:22;9.55;;;5.78;;
74495;SDS011;62979;55.720;37.606;2022-08-19T03:04:48;10.35;;;5.10;;
74495;SDS011;62979;55.720;37.606;2022-08-19T03:07:16;10.30;;;5.93;;
74495;SDS011;62979;55.720;37.606;2022-08-19T03:09:42;10.55;;;6.80;;
74495;SDS011;62979;55.720;37.606;2022-08-19T03:12:09;12.77;;;5.97;;
74495;SDS011;62979;55.720;37.606;2022-08-19T03:14:35;9.23;;;6.53;;
74495;SDS011;62979;55.720;37.606;2022-08-19T03:17:01;9.13;;;6.45;;
74495;SDS011;62979;55.720;37.606;2022-08-19T03:19:28;13.95;;;5.88;;
74495;SDS011;62979;55.720;37.606;2022-08-19T03:21:54;8.75;;;5.63;;
74495;SDS011;62979;55.720;37.606;2022-08-19T03:24:21;12.25;;;6.10;;
74495;SDS011;62979;55.720;37.606;2022-08-19T03:26:48;9.80;;;5.65;;
74495;SDS011;62979;55.720;37.606;2022-08-19T03:29:17;12.40;;;5.88;;
74495;SDS011;62979;55.720;37.606;2022-08-19T03:31:45;10.55;;;6.18;;
74495;SDS011;62979;55.720;37.606;2022-08-19T03:34:12;12.95;;;6.10;;
74495;SDS011;62979;55.720;37.606;2022-08-19T03:36:44;10.30;;;7.05;;
74495;SDS011;62979;55.720;37.606;2022-08-19T03:39:10;11.30;;;5.70;;
74495;SDS011;62979;55.720;37.606;2022-08-19T03:41:38;7.38;;;5.43;;
74495;SDS011;62979;55.720;37.606;2022-08-19T03:44:06;9.65;;;5.72;;
74495;SDS011;62979;55.720;37.606;2022-08-19T03:46:32;11.20;;;5.90;;
74495;SDS011;62979;55.720;37.606;2022-08-19T03:48:59;10.90;;;6.05;;
74495;SDS011;62979;55.720;37.606;2022-08-19T03:51:28;8.07;;;5.80;;
74495;SDS011;62979;55.720;37.606;2022-08-19T03:53:56;9.18;;;6.05;;
74495;SDS011;62979;55.720;37.606;2022-08-19T03:56:24;9.65;;;6.05;;
74495;SDS011;62979;55.720;37.606;2022-08-19T03:58:51;9.60;;;5.82;;
74495;SDS011;62979;55.720;37.606;2022-08-19T04:03:45;13.20;;;5.95;;
74495;SDS011;62979;55.720;37.606;2022-08-19T04:06:12;13.15;;;5.97;;
74495;SDS011;62979;55.720;37.606;2022-08-19T04:08:40;8.73;;;6.30;;
74495;SDS011;62979;55.720;37.606;2022-08-19T04:11:08;9.85;;;5.95;;
74495;SDS011;62979;55.720;37.606;2022-08-19T04:13:34;7.38;;;5.10;;
74495;SDS011;62979;55.720;37.606;2022-08-19T04:16:04;9.32;;;6.18;;
74495;SDS011;62979;55.720;37.606;2022-08-19T04:18:30;8.57;;;5.70;;
74495;SDS011;62979;55.720;37.606;2022-08-19T04:20:56;13.45;;;5.65;;
74495;SDS011;62979;55.720;37.606;2022-08-19T04:23:22;18.67;;;5.85;;
74495;SDS011;62979;55.720;37.606;2022-08-19T04:25:48;13.50;;;7.35;;
74495;SDS011;62979;55.720;37.606;2022-08-19T04:28:14;11.98;;;7.05;;
74495;SDS011;62979;55.720;37.606;2022-08-19T04:30:40;8.63;;;5.18;;
74495;SDS011;62979;55.720;37.606;2022-08-19T04:33:10;11.75;;;6.50;;
74495;SDS011;62979;55.720;37.606;2022-08-19T04:35:39;14.48;;;6.35;;
74495;SDS011;62979;55.720;37.606;2022-08-19T04:38:07;8.55;;;4.82;;
74495;SDS011;62979;55.720;37.606;2022-08-19T04:40:34;8.77;;;6.55;;
74495;SDS011;62979;55.720;37.606;2022-08-19T04:43:05;12.68;;;6.40;;
74495;SDS011;62979;55.720;37.606;2022-08-19T04:45:31;11.90;;;7.07;;
74495;SDS011;62979;55.720;37.606;2022-08-19T04:47:57;10.65;;;6.90;;
74495;SDS011;62979;55.720;37.606;2022-08-19T04:50:24;10.50;;;6.68;;
74495;SDS011;62979;55.720;37.606;2022-08-19T04:52:51;10.77;;;6.82;;
74495;SDS011;62979;55.720;37.606;2022-08-19T04:55:17;12.38;;;6.70;;
74495;SDS011;62979;55.720;37.606;2022-08-19T04:57:43;17.17;;;8.18;;
74495;SDS011;62979;55.720;37.606;2022-08-19T05:00:09;19.08;;;8.15;;
74495;SDS011;62979;55.720;37.606;2022-08-19T05:02:36;15.57;;;7.32;;
74495;SDS011;62979;55.720;37.606;2022-08-19T05:05:03;11.60;;;7.35;;
74495;SDS011;62979;55.720;37.606;2022-08-19T05:07:31;15.13;;;7.30;;
74495;SDS011;62979;55.720;37.606;2022-08-19T05:09:56;11.20;;;7.13;;
74495;SDS011;62979;55.720;37.606;2022-08-19T05:12:22;10.77;;;6.25;;
74495;SDS011;62979;55.720;37.606;2022-08-19T05:14:48;11.75;;;6.93;;
74495;SDS011;62979;55.720;37.606;2022-08-19T05:17:14;13.77;;;6.82;;
74495;SDS011;62979;55.720;37.606;2022-08-19T05:19:40;13.30;;;7.18;;
74495;SDS011;62979;55.720;37.606;2022-08-19T05:22:06;10.55;;;6.15;;
74495;SDS011;62979;55.720;37.606;2022-08-19T05:24:33;10.32;;;5.20;;
74495;SDS011;62979;55.720;37.606;2022-08-19T05:27:00;11.45;;;6.95;;
74495;SDS011;62979;55.720;37.606;2022-08-19T05:29:27;12.35;;;6.63;;
74495;SDS011;62979;55.720;37.606;2022-08-19T05:31:54;13.35;;;5.97;;
74495;SDS011;62979;55.720;37.606;2022-08-19T05:34:21;9.07;;;5.78;;
74495;SDS011;62979;55.720;37.606;2022-08-19T05:36:49;12.75;;;6.43;;
74495;SDS011;62979;55.720;37.606;2022-08-19T05:39:17;9.73;;;5.63;;
74495;SDS011;62979;55.720;37.606;2022-08-19T05:41:48;10.73;;;5.63;;
74495;SDS011;62979;55.720;37.606;2022-08-19T05:44:17;11.73;;;6.00;;
74495;SDS011;62979;55.720;37.606;2022-08-19T05:46:43;9.63;;;6.40;;
74495;SDS011;62979;55.720;37.606;2022-08-19T05:49:09;9.25;;;6.43;;
74495;SDS011;62979;55.720;37.606;2022-08-19T05:51:35;8.75;;;5.90;;
74495;SDS011;62979;55.720;37.606;2022-08-19T05:54:02;12.30;;;6.88;;
74495;SDS011;62979;55.720;37.606;2022-08-19T05:56:29;11.98;;;5.72;;
74495;SDS011;62979;55.720;37.606;2022-08-19T05:58:58;12.90;;;4.53;;
74495;SDS011;62979;55.720;37.606;2022-08-19T06:01:25;11.63;;;6.40;;
74495;SDS011;62979;55.720;37.606;2022-08-19T06:03:51;12.75;;;5.90;;
74495;SDS011;62979;55.720;37.606;2022-08-19T06:06:18;12.68;;;6.10;;
74495;SDS011;62979;55.720;37.606;2022-08-19T06:08:44;8.40;;;5.78;;
74495;SDS011;62979;55.720;37.606;2022-08-19T06:11:15;10.98;;;6.25;;
74495;SDS011;62979;55.720;37.606;2022-08-19T06:13:46;8.50;;;5.25;;
74495;SDS011;62979;55.720;37.606;2022-08-19T06:16:15;13.57;;;5.55;;
74495;SDS011;62979;55.720;37.606;2022-08-19T06:18:42;12.00;;;6.45;;
74495;SDS011;62979;55.720;37.606;2022-08-19T06:21:08;9.35;;;5.97;;
74495;SDS011;62979;55.720;37.606;2022-08-19T06:23:33;14.77;;;5.45;;
74495;SDS011;62979;55.720;37.606;2022-08-19T06:25:59;12.82;;;6.32;;
74495;SDS011;62979;55.720;37.606;2022-08-19T06:28:25;9.32;;;6.22;;
74495;SDS011;62979;55.720;37.606;2022-08-19T06:30:51;6.88;;;5.90;;
74495;SDS011;62979;55.720;37.606;2022-08-19T06:33:18;9.40;;;5.97;;
74495;SDS011;62979;55.720;37.606;2022-08-19T06:35:44;8.45;;;5.30;;
74495;SDS011;62979;55.720;37.606;2022-08-19T06:38:10;11.20;;;4.57;;
74495;SDS011;62979;55.720;37.606;2022-08-19T06:40:36;9.75;;;5.53;;
74495;SDS011;62979;55.720;37.606;2022-08-19T06:43:01;12.10;;;5.25;;
74495;SDS011;62979;55.720;37.606;2022-08-19T06:45:27;12.07;;;5.45;;
74495;SDS011;62979;55.720;37.606;2022-08-19T06:47:53;8.93;;;6.22;;
74495;SDS011;62979;55.720;37.606;2022-08-19T06:50:20;9.57;;;4.65;;
74495;SDS011;62979;55.720;37.606;2022-08-19T06:52:47;8.70;;;6.43;;
74495;SDS011;62979;55.720;37.606;2022-08-19T06:55:12;12.15;;;6.45;;
74495;SDS011;62979;55.720;37.606;2022-08-19T06:57:39;10.07;;;6.72;;
74495;SDS011;62979;55.720;37.606;2022-08-19T07:00:05;10.27;;;5.18;;
74495;SDS011;62979;55.720;37.606;2022-08-19T07:02:31;12.55;;;5.82;;
74495;SDS011;62979;55.720;37.606;2022-08-19T07:04:57;8.05;;;6.10;;
74495;SDS011;62979;55.720;37.606;2022-08-19T07:07:24;8.85;;;6.13;;
74495;SDS011;62979;55.720;37.606;2022-08-19T07:09:50;9.68;;;6.35;;
74495;SDS011;62979;55.720;37.606;2022-08-19T07:12:16;11.60;;;7.45;;
74495;SDS011;62979;55.720;37.606;2022-08-19T07:14:42;11.50;;;6.82;;
74495;SDS011;62979;55.720;37.606;2022-08-19T07:20:17;14.40;;;6.88;;
74495;SDS011;62979;55.720;37.606;2022-08-19T07:22:45;14.93;;;6.72;;
74495;SDS011;62979;55.720;37.606;2022-08-19T07:25:10;12.50;;;5.70;;
74495;SDS011;62979;55.720;37.606;2022-08-19T07:27:36;12.25;;;5.90;;
74495;SDS011;62979;55.720;37.606;2022-08-19T07:30:03;15.05;;;7.15;;
74495;SDS011;62979;55.720;37.606;2022-08-19T07:32:30;10.95;;;6.03;;
74495;SDS011;62979;55.720;37.606;2022-08-19T07:34:55;14.18;;;6.85;;
74495;SDS011;62979;55.720;37.606;2022-08-19T07:37:21;11.27;;;5.82;;
74495;SDS011;62979;55.720;37.606;2022-08-19T07:39:49;13.32;;;6.25;;
74495;SDS011;62979;55.720;37.606;2022-08-19T07:44:40;17.42;;;5.63;;
74495;SDS011;62979;55.720;37.606;2022-08-19T07:47:07;9.60;;;5.80;;
74495;SDS011;62979;55.720;37.606;2022-08-19T07:49:33;12.25;;;6.32;;
74495;SDS011;62979;55.720;37.606;2022-08-19T07:51:59;10.85;;;4.35;;
74495;SDS011;62979;55.720;37.606;2022-08-19T07:54:31;18.42;;;5.88;;
74495;SDS011;62979;55.720;37.606;2022-08-19T07:57:01;15.52;;;6.82;;
74495;SDS011;62979;55.720;37.606;2022-08-19T07:59:28;16.10;;;3.80;;
74495;SDS011;62979;55.720;37.606;2022-08-19T08:01:55;9.45;;;5.63;;
74495;SDS011;62979;55.720;37.606;2022-08-19T08:04:22;10.15;;;4.85;;
74495;SDS011;62979;55.720;37.606;2022-08-19T08:06:48;10.23;;;4.00;;
74495;SDS011;62979;55.720;37.606;2022-08-19T08:09:15;14.23;;;5.78;;
74495;SDS011;62979;55.720;37.606;2022-08-19T08:11:49;14.65;;;6.55;;
74495;SDS011;62979;55.720;37.606;2022-08-19T08:14:21;15.05;;;6.15;;
74495;SDS011;62979;55.720;37.606;2022-08-19T08:16:50;12.57;;;6.07;;
74495;SDS011;62979;55.720;37.606;2022-08-19T08:33:14;10.57;;;5.68;;
74495;SDS011;62979;55.720;37.606;2022-08-19T08:35:43;9.35;;;5.40;;
74495;SDS011;62979;55.720;37.606;2022-08-19T08:38:09;10.50;;;5.70;;
74495;SDS011;62979;55.720;37.606;2022-08-19T08:40:38;15.02;;;6.75;;
74495;SDS011;62979;55.720;37.606;2022-08-19T08:43:15;19.83;;;5.53;;
74495;SDS011;62979;55.720;37.606;2022-08-19T08:45:52;15.18;;;6.38;;
74495;SDS011;62979;55.720;37.606;2022-08-19T08:48:28;11.23;;;6.28;;
74495;SDS011;62979;55.720;37.606;2022-08-19T08:51:14;8.65;;;5.05;;
74495;SDS011;62979;55.720;37.606;2022-08-19T08:53:49;10.35;;;5.97;;
74495;SDS011;62979;55.720;37.606;2022-08-19T08:56:16;12.75;;;4.93;;
74495;SDS011;62979;55.720;37.606;2022-08-19T08:58:47;8.93;;;4.53;;
74495;SDS011;62979;55.720;37.606;2022-08-19T09:01:21;8.77;;;5.30;;
74495;SDS011;62979;55.720;37.606;2022-08-19T09:03:49;15.07;;;5.03;;
74495;SDS011;62979;55.720;37.606;2022-08-19T09:06:18;7.13;;;5.15;;
74495;SDS011;62979;55.720;37.606;2022-08-19T09:08:55;14.23;;;5.00;;
74495;SDS011;62979;55.720;37.606;2022-08-19T09:11:31;6.28;;;3.63;;
74495;SDS011;62979;55.720;37.606;2022-08-19T09:14:10;6.13;;;5.43;;
74495;SDS011;62979;55.720;37.606;2022-08-19T09:17:01;22.27;;;5.50;;
74495;SDS011;62979;55.720;37.606;2022-08-19T09:19:29;11.82;;;5.63;;
74495;SDS011;62979;55.720;37.606;2022-08-19T09:21:55;20.27;;;5.05;;
74495;SDS011;62979;55.720;37.606;2022-08-19T09:24:21;16.55;;;6.35;;
74495;SDS011;62979;55.720;37.606;2022-08-19T09:26:47;17.27;;;4.90;;
74495;SDS011;62979;55.720;37.606;2022-08-19T09:29:13;8.02;;;5.07;;
74495;SDS011;62979;55.720;37.606;2022-08-19T09:31:39;8.90;;;5.30;;
74495;SDS011;62979;55.720;37.606;2022-08-19T09:34:04;8.45;;;5.65;;
74495;SDS011;62979;55.720;37.606;2022-08-19T09:36:32;6.07;;;4.63;;
74495;SDS011;62979;55.720;37.606;2022-08-19T09:38:58;7.75;;;5.55;;
74495;SDS011;62979;55.720;37.606;2022-08-19T09:41:24;6.05;;;5.10;;
74495;SDS011;62979;55.720;37.606;2022-08-19T09:43:51;9.27;;;4.90;;
74495;SDS011;62979;55.720;37.606;2022-08-19T09:46:19;7.00;;;5.22;;
74495;SDS011;62979;55.720;37.606;2022-08-19T09:48:45;9.38;;;5.80;;
74495;SDS011;62979;55.720;37.606;2022-08-19T09:51:12;5.25;;;4.53;;
74495;SDS011;62979;55.720;37.606;2022-08-19T09:53:41;8.80;;;4.22;;
74495;SDS011;62979;55.720;37.606;2022-08-19T09:56:09;10.32;;;5.47;;
74495;SDS011;62979;55.720;37.606;2022-08-19T09:58:36;18.30;;;4.50;;
74495;SDS011;62979;55.720;37.606;2022-08-19T10:01:03;9.57;;;4.72;;
74495;SDS011;62979;55.720;37.606;2022-08-19T10:03:31;11.00;;;3.92;;
74495;SDS011;62979;55.720;37.606;2022-08-19T10:06:00;10.40;;;4.70;;
74495;SDS011;62979;55.720;37.606;2022-08-19T10:08:30;6.63;;;4.38;;
74495;SDS011;62979;55.720;37.606;2022-08-19T10:11:00;7.18;;;4.45;;
74495;SDS011;62979;55.720;37.606;2022-08-19T10:13:28;5.05;;;4.55;;
74495;SDS011;62979;55.720;37.606;2022-08-19T10:15:56;5.03;;;4.50;;
74495;SDS011;62979;55.720;37.606;2022-08-19T10:18:29;10.52;;;4.82;;
74495;SDS011;62979;55.720;37.606;2022-08-19T10:21:02;7.53;;;5.18;;
74495;SDS011;62979;55.720;37.606;2022-08-19T10:23:31;8.43;;;3.70;;
74495;SDS011;62979;55.720;37.606;2022-08-19T10:27:04;8.10;;;2.90;;
74495;SDS011;62979;55.720;37.606;2022-08-19T10:29:32;10.52;;;3.35;;
74495;SDS011;62979;55.720;37.606;2022-08-19T10:32:00;8.68;;;3.25;;
74495;SDS011;62979;55.720;37.606;2022-08-19T10:34:31;7.55;;;3.22;;
74495;SDS011;62979;55.720;37.606;2022-08-19T10:36:58;4.75;;;2.80;;
74495;SDS011;62979;55.720;37.606;2022-08-19T10:39:26;12.27;;;4.50;;
74495;SDS011;62979;55.720;37.606;2022-08-19T10:41:54;8.43;;;3.13;;
74495;SDS011;62979;55.720;37.606;2022-08-19T10:44:23;8.20;;;3.63;;
74495;SDS011;62979;55.720;37.606;2022-08-19T10:46:53;15.48;;;2.63;;
74495;SDS011;62979;55.720;37.606;2022-08-19T10:49:20;14.07;;;3.60;;
74495;SDS011;62979;55.720;37.606;2022-08-19T10:51:49;10.88;;;2.97;;
74495;SDS011;62979;55.720;37.606;2022-08-19T10:54:33;16.88;;;4.03;;
74495;SDS011;62979;55.720;37.606;2022-08-19T10:57:19;14.05;;;3.50;;
74495;SDS011;62979;55.720;37.606;2022-08-19T10:59:50;10.32;;;3.08;;
74495;SDS011;62979;55.720;37.606;2022-08-19T11:02:17;7.15;;;3.17;;
74495;SDS011;62979;55.720;37.606;2022-08-19T11:04:44;9.68;;;3.80;;
74495;SDS011;62979;55.720;37.606;2022-08-19T11:07:11;7.57;;;3.58;;
74495;SDS011;62979;55.720;37.606;2022-08-19T11:09:39;4.75;;;3.38;;
74495;SDS011;62979;55.720;37.606;2022-08-19T11:12:09;11.38;;;2.83;;
74495;SDS011;62979;55.720;37.606;2022-08-19T11:14:37;6.72;;;3.25;;
74495;SDS011;62979;55.720;37.606;2022-08-19T11:17:06;8.55;;;3.47;;
74495;SDS011;62979;55.720;37.606;2022-08-19T11:19:33;8.48;;;3.17;;
74495;SDS011;62979;55.720;37.606;2022-08-19T11:22:01;8.52;;;2.88;;
74495;SDS011;62979;55.720;37.606;2022-08-19T11:24:28;6.70;;;3.30;;
74495;SDS011;62979;55.720;37.606;2022-08-19T11:27:00;6.25;;;3.30;;
74495;SDS011;62979;55.720;37.606;2022-08-19T11:29:30;11.32;;;3.72;;
74495;SDS011;62979;55.720;37.606;2022-08-19T11:31:59;9.98;;;4.53;;
74495;SDS011;62979;55.720;37.606;2022-08-19T11:34:32;11.30;;;4.05;;
74495;SDS011;62979;55.720;37.606;2022-08-19T11:37:00;6.75;;;4.10;;
74495;SDS011;62979;55.720;37.606;2022-08-19T11:39:29;7.30;;;3.55;;
74495;SDS011;62979;55.720;37.606;2022-08-19T11:41:57;13.93;;;3.47;;
74495;SDS011;62979;55.720;37.606;2022-08-19T11:44:26;9.98;;;3.45;;
74495;SDS011;62979;55.720;37.606;2022-08-19T11:46:55;5.53;;;3.35;;
74495;SDS011;62979;55.720;37.606;2022-08-19T11:49:22;3.30;;;2.88;;
74495;SDS011;62979;55.720;37.606;2022-08-19T11:51:51;8.00;;;2.90;;
74495;SDS011;62979;55.720;37.606;2022-08-19T11:54:18;8.93;;;3.80;;
74495;SDS011;62979;55.720;37.606;2022-08-19T11:56:45;8.50;;;3.15;;
74495;SDS011;62979;55.720;37.606;2022-08-19T11:59:14;6.30;;;4.15;;
74495;SDS011;62979;55.720;37.606;2022-08-19T12:01:41;11.68;;;3.53;;
74495;SDS011;62979;55.720;37.606;2022-08-19T12:04:08;9.65;;;2.92;;
74495;SDS011;62979;55.720;37.606;2022-08-19T12:06:37;6.28;;;3.13;;
74495;SDS011;62979;55.720;37.606;2022-08-19T12:09:08;6.20;;;3.63;;
74495;SDS011;62979;55.720;37.606;2022-08-19T12:11:37;6.43;;;3.78;;
74495;SDS011;62979;55.720;37.606;2022-08-19T12:14:06;7.25;;;3.88;;
74495;SDS011;62979;55.720;37.606;2022-08-19T12:16:36;5.93;;;3.70;;
74495;SDS011;62979;55.720;37.606;2022-08-19T12:19:04;8.07;;;3.58;;
74495;SDS011;62979;55.720;37.606;2022-08-19T12:21:33;11.82;;;4.05;;
74495;SDS011;62979;55.720;37.606;2022-08-19T12:24:02;7.28;;;4.63;;
74495;SDS011;62979;55.720;37.606;2022-08-19T12:26:33;8.48;;;3.58;;
74495;SDS011;62979;55.720;37.606;2022-08-19T12:29:01;6.97;;;3.20;;
74495;SDS011;62979;55.720;37.606;2022-08-19T12:31:29;7.25;;;3.72;;
74495;SDS011;62979;55.720;37.606;2022-08-19T12:33:57;6.28;;;3.33;;
74495;SDS011;62979;55.720;37.606;2022-08-19T12:36:27;9.23;;;4.13;;
74495;SDS011;62979;55.720;37.606;2022-08-19T12:38:54;5.00;;;3.88;;
74495;SDS011;62979;55.720;37.606;2022-08-19T12:41:25;7.53;;;3.63;;
74495;SDS011;62979;55.720;37.606;2022-08-19T12:43:53;8.63;;;4.38;;
74495;SDS011;62979;55.720;37.606;2022-08-19T12:46:20;10.50;;;4.03;;
74495;SDS011;62979;55.720;37.606;2022-08-19T12:48:48;9.55;;;3.90;;
74495;SDS011;62979;55.720;37.606;2022-08-19T12:51:15;8.70;;;3.45;;
74495;SDS011;62979;55.720;37.606;2022-08-19T12:53:44;9.98;;;4.05;;
74495;SDS011;62979;55.720;37.606;2022-08-19T12:56:11;7.65;;;4.20;;
74495;SDS011;62979;55.720;37.606;2022-08-19T12:58:40;9.95;;;4.13;;
74495;SDS011;62979;55.720;37.606;2022-08-19T13:01:13;8.88;;;3.83;;
74495;SDS011;62979;55.720;37.606;2022-08-19T13:03:42;6.78;;;3.38;;
74495;SDS011;62979;55.720;37.606;2022-08-19T13:06:14;10.40;;;3.70;;
74495;SDS011;62979;55.720;37.606;2022-08-19T13:08:41;11.40;;;3.72;;
74495;SDS011;62979;55.720;37.606;2022-08-19T13:11:10;20.40;;;3.95;;
74495;SDS011;62979;55.720;37.606;2022-08-19T13:13:42;9.82;;;3.75;;
74495;SDS011;62979;55.720;37.606;2022-08-19T13:16:13;6.70;;;3.20;;
74495;SDS011;62979;55.720;37.606;2022-08-19T13:18:41;14.68;;;4.05;;
74495;SDS011;62979;55.720;37.606;2022-08-19T13:21:12;9.75;;;4.38;;
74495;SDS011;62979;55.720;37.606;2022-08-19T13:23:40;19.67;;;4.63;;
74495;SDS011;62979;55.720;37.606;2022-08-19T13:26:08;17.73;;;3.83;;
74495;SDS011;62979;55.720;37.606;2022-08-19T13:28:38;12.30;;;2.97;;
74495;SDS011;62979;55.720;37.606;2022-08-19T13:31:27;11.73;;;3.05;;
74495;SDS011;62979;55.720;37.606;2022-08-19T13:34:16;11.48;;;3.95;;
74495;SDS011;62979;55.720;37.606;2022-08-19T13:36:46;5.30;;;3.30;;
74495;SDS011;62979;55.720;37.606;2022-08-19T13:41:42;9.10;;;3.10;;
74495;SDS011;62979;55.720;37.606;2022-08-19T13:44:13;5.07;;;2.60;;
74495;SDS011;62979;55.720;37.606;2022-08-19T13:46:44;8.07;;;3.70;;
74495;SDS011;62979;55.720;37.606;2022-08-19T13:49:12;8.18;;;3.38;;
74495;SDS011;62979;55.720;37.606;2022-08-19T13:51:39;10.50;;;3.45;;
74495;SDS011;62979;55.720;37.606;2022-08-19T13:54:08;10.60;;;3.30;;
74495;SDS011;62979;55.720;37.606;2022-08-19T13:56:39;9.40;;;3.83;;
74495;SDS011;62979;55.720;37.606;2022-08-19T13:59:08;11.50;;;3.35;;
74495;SDS011;62979;55.720;37.606;2022-08-19T14:01:35;5.65;;;3.20;;
74495;SDS011;62979;55.720;37.606;2022-08-19T14:04:04;8.93;;;3.22;;
74495;SDS011;62979;55.720;37.606;2022-08-19T14:06:32;13.18;;;3.75;;
74495;SDS011;62979;55.720;37.606;2022-08-19T14:11:27;6.82;;;3.47;;
74495;SDS011;62979;55.720;37.606;2022-08-19T14:16:21;10.30;;;3.30;;
74495;SDS011;62979;55.720;37.606;2022-08-19T14:18:48;11.85;;;5.10;;
74495;SDS011;62979;55.720;37.606;2022-08-19T14:23:49;9.13;;;4.75;;
74495;SDS011;62979;55.720;37.606;2022-08-19T14:26:16;13.52;;;5.22;;
74495;SDS011;62979;55.720;37.606;2022-08-19T14:28:45;17.52;;;6.65;;
74495;SDS011;62979;55.720;37.606;2022-08-19T14:31:14;20.55;;;7.00;;
74495;SDS011;62979;55.720;37.606;2022-08-19T14:33:44;9.52;;;6.85;;
74495;SDS011;62979;55.720;37.606;2022-08-19T14:36:12;19.35;;;9.57;;
74495;SDS011;62979;55.720;37.606;2022-08-19T14:38:41;16.42;;;9.10;;
74495;SDS011;62979;55.720;37.606;2022-08-19T14:41:09;12.25;;;10.98;;
74495;SDS011;62979;55.720;37.606;2022-08-19T14:43:40;14.25;;;10.52;;
74495;SDS011;62979;55.720;37.606;2022-08-19T14:46:08;17.98;;;10.60;;
74495;SDS011;62979;55.720;37.606;2022-08-19T14:48:35;11.27;;;9.25;;
74495;SDS011;62979;55.720;37.606;2022-08-19T14:51:03;13.52;;;8.98;;
74495;SDS011;62979;55.720;37.606;2022-08-19T14:53:31;11.48;;;9.00;;
74495;SDS011;62979;55.720;37.606;2022-08-19T14:56:01;14.55;;;8.77;;
74495;SDS011;62979;55.720;37.606;2022-08-19T14:58:33;15.00;;;9.30;;
74495;SDS011;62979;55.720;37.606;2022-08-19T15:01:00;14.20;;;9.93;;
74495;SDS011;62979;55.720;37.606;2022-08-19T15:03:28;12.88;;;9.90;;
74495;SDS011;62979;55.720;37.606;2022-08-19T15:05:56;15.20;;;10.95;;
74495;SDS011;62979;55.720;37.606;2022-08-19T15:08:24;10.98;;;9.27;;
74495;SDS011;62979;55.720;37.606;2022-08-19T15:10:52;11.52;;;8.95;;
74495;SDS011;62979;55.720;37.606;2022-08-19T15:13:21;13.65;;;8.52;;